sensor_id;sensor_type;location;lat;lon;timestamp;temperature;humidity
68746;SHT31;66104;45.456;11.064;2023-03-11T00:00:12;14.69;43.96
68746;SHT31;66104;45.456;11.064;2023-03-11T00:02:52;14.69;43.76
68746;SHT31;66104;45.456;11.064;2023-03-11T00:05:31;14.69;43.89
68746;SHT31;66104;45.456;11.064;2023-03-11T00:08:12;14.70;44.05
68746;SHT31;66104;45.456;11.064;2023-03-11T00:10:55;14.70;44.27
68746;SHT31;66104;45.456;11.064;2023-03-11T00:13:32;14.71;44.44
68746;SHT31;66104;45.456;11.064;2023-03-11T00:16:10;14.69;44.54
68746;SHT31;66104;45.456;11.064;2023-03-11T00:18:46;14.68;44.74
68746;SHT31;66104;45.456;11.064;2023-03-11T00:21:25;14.68;44.83
68746;SHT31;66104;45.456;11.064;2023-03-11T00:24:02;14.66;45.00
68746;SHT31;66104;45.456;11.064;2023-03-11T00:26:41;14.68;44.97
68746;SHT31;66104;45.456;11.064;2023-03-11T00:29:18;14.68;44.70
68746;SHT31;66104;45.456;11.064;2023-03-11T00:31:55;14.65;44.71
68746;SHT31;66104;45.456;11.064;2023-03-11T00:34:32;14.65;44.45
68746;SHT31;66104;45.456;11.064;2023-03-11T00:37:09;14.59;44.44
68746;SHT31;66104;45.456;11.064;2023-03-11T00:39:46;14.56;44.53
68746;SHT31;66104;45.456;11.064;2023-03-11T00:42:22;14.54;44.61
68746;SHT31;66104;45.456;11.064;2023-03-11T00:44:59;14.48;44.82
68746;SHT31;66104;45.456;11.064;2023-03-11T00:47:39;14.47;44.70
68746;SHT31;66104;45.456;11.064;2023-03-11T00:50:17;14.39;44.69
68746;SHT31;66104;45.456;11.064;2023-03-11T00:52:56;14.36;44.71
68746;SHT31;66104;45.456;11.064;2023-03-11T00:55:34;14.36;44.71
68746;SHT31;66104;45.456;11.064;2023-03-11T00:58:13;14.37;44.67
68746;SHT31;66104;45.456;11.064;2023-03-11T01:00:54;14.36;44.50
68746;SHT31;66104;45.456;11.064;2023-03-11T01:03:31;14.33;44.59
68746;SHT31;66104;45.456;11.064;2023-03-11T01:06:08;14.30;44.71
68746;SHT31;66104;45.456;11.064;2023-03-11T01:08:46;14.31;44.82
68746;SHT31;66104;45.456;11.064;2023-03-11T01:11:22;14.30;44.89
68746;SHT31;66104;45.456;11.064;2023-03-11T01:13:59;14.27;44.77
68746;SHT31;66104;45.456;11.064;2023-03-11T01:16:38;14.19;45.62
68746;SHT31;66104;45.456;11.064;2023-03-11T01:19:16;14.11;46.09
68746;SHT31;66104;45.456;11.064;2023-03-11T01:21:54;14.06;46.56
68746;SHT31;66104;45.456;11.064;2023-03-11T01:24:31;13.97;47.05
68746;SHT31;66104;45.456;11.064;2023-03-11T01:27:07;13.90;47.33
68746;SHT31;66104;45.456;11.064;2023-03-11T01:29:43;13.86;47.61
68746;SHT31;66104;45.456;11.064;2023-03-11T01:32:20;13.77;48.02
68746;SHT31;66104;45.456;11.064;2023-03-11T01:34:57;13.70;48.40
68746;SHT31;66104;45.456;11.064;2023-03-11T01:37:34;13.63;48.72
68746;SHT31;66104;45.456;11.064;2023-03-11T01:40:14;13.57;49.06
68746;SHT31;66104;45.456;11.064;2023-03-11T01:42:57;13.48;49.52
68746;SHT31;66104;45.456;11.064;2023-03-11T01:45:35;13.39;49.75
68746;SHT31;66104;45.456;11.064;2023-03-11T01:48:54;13.32;50.11
68746;SHT31;66104;45.456;11.064;2023-03-11T01:51:36;13.30;50.23
68746;SHT31;66104;45.456;11.064;2023-03-11T01:54:17;13.24;50.39
68746;SHT31;66104;45.456;11.064;2023-03-11T01:56:59;13.15;50.62
68746;SHT31;66104;45.456;11.064;2023-03-11T01:59:42;13.13;50.62
68746;SHT31;66104;45.456;11.064;2023-03-11T02:02:24;13.06;50.96
68746;SHT31;66104;45.456;11.064;2023-03-11T02:05:07;12.96;51.11
68746;SHT31;66104;45.456;11.064;2023-03-11T02:07:45;12.89;51.24
68746;SHT31;66104;45.456;11.064;2023-03-11T02:10:26;12.84;51.41
68746;SHT31;66104;45.456;11.064;2023-03-11T02:13:03;12.78;51.61
68746;SHT31;66104;45.456;11.064;2023-03-11T02:15:39;12.72;51.79
68746;SHT31;66104;45.456;11.064;2023-03-11T02:18:18;12.61;51.91
68746;SHT31;66104;45.456;11.064;2023-03-11T02:20:56;12.48;52.00
68746;SHT31;66104;45.456;11.064;2023-03-11T02:23:48;12.38;52.15
68746;SHT31;66104;45.456;11.064;2023-03-11T02:26:35;12.31;52.30
68746;SHT31;66104;45.456;11.064;2023-03-11T02:29:19;12.31;52.19
68746;SHT31;66104;45.456;11.064;2023-03-11T02:31:58;12.27;52.35
68746;SHT31;66104;45.456;11.064;2023-03-11T02:34:42;12.23;52.40
68746;SHT31;66104;45.456;11.064;2023-03-11T02:37:19;12.17;52.56
68746;SHT31;66104;45.456;11.064;2023-03-11T02:43:00;12.08;52.62
68746;SHT31;66104;45.456;11.064;2023-03-11T02:45:40;12.07;52.60
68746;SHT31;66104;45.456;11.064;2023-03-11T02:48:21;12.02;52.61
68746;SHT31;66104;45.456;11.064;2023-03-11T02:51:01;11.96;52.73
68746;SHT31;66104;45.456;11.064;2023-03-11T02:53:40;11.87;52.97
68746;SHT31;66104;45.456;11.064;2023-03-11T02:56:21;11.86;52.82
68746;SHT31;66104;45.456;11.064;2023-03-11T02:58:59;11.86;52.87
68746;SHT31;66104;45.456;11.064;2023-03-11T03:01:35;11.82;52.88
68746;SHT31;66104;45.456;11.064;2023-03-11T03:04:12;11.77;52.99
68746;SHT31;66104;45.456;11.064;2023-03-11T03:06:51;11.71;53.09
68746;SHT31;66104;45.456;11.064;2023-03-11T03:09:28;11.68;53.20
68746;SHT31;66104;45.456;11.064;2023-03-11T03:12:07;11.67;53.06
68746;SHT31;66104;45.456;11.064;2023-03-11T03:14:45;11.65;53.07
68746;SHT31;66104;45.456;11.064;2023-03-11T03:17:23;11.63;53.19
68746;SHT31;66104;45.456;11.064;2023-03-11T03:20:00;11.62;53.12
68746;SHT31;66104;45.456;11.064;2023-03-11T03:22:46;11.55;53.28
68746;SHT31;66104;45.456;11.064;2023-03-11T03:25:27;11.47;53.56
68746;SHT31;66104;45.456;11.064;2023-03-11T03:28:07;11.42;53.79
68746;SHT31;66104;45.456;11.064;2023-03-11T03:30:45;11.40;53.99
68746;SHT31;66104;45.456;11.064;2023-03-11T03:33:21;11.35;53.92
68746;SHT31;66104;45.456;11.064;2023-03-11T03:35:58;11.31;53.81
68746;SHT31;66104;45.456;11.064;2023-03-11T03:38:47;11.34;53.71
68746;SHT31;66104;45.456;11.064;2023-03-11T03:41:31;11.36;53.55
68746;SHT31;66104;45.456;11.064;2023-03-11T03:44:09;11.36;53.49
68746;SHT31;66104;45.456;11.064;2023-03-11T03:46:47;11.37;53.60
68746;SHT31;66104;45.456;11.064;2023-03-11T03:49:25;11.37;53.59
68746;SHT31;66104;45.456;11.064;2023-03-11T03:52:03;11.38;53.66
68746;SHT31;66104;45.456;11.064;2023-03-11T03:54:41;11.37;53.63
68746;SHT31;66104;45.456;11.064;2023-03-11T03:57:18;11.38;53.51
68746;SHT31;66104;45.456;11.064;2023-03-11T03:59:55;11.36;53.59
68746;SHT31;66104;45.456;11.064;2023-03-11T04:02:40;11.34;53.78
68746;SHT31;66104;45.456;11.064;2023-03-11T04:05:24;11.35;53.82
68746;SHT31;66104;45.456;11.064;2023-03-11T04:08:01;11.36;53.85
68746;SHT31;66104;45.456;11.064;2023-03-11T04:10:38;11.36;53.67
68746;SHT31;66104;45.456;11.064;2023-03-11T04:13:14;11.34;53.81
68746;SHT31;66104;45.456;11.064;2023-03-11T04:15:51;11.36;53.76
68746;SHT31;66104;45.456;11.064;2023-03-11T04:18:28;11.31;53.88
68746;SHT31;66104;45.456;11.064;2023-03-11T04:21:06;11.23;54.08
68746;SHT31;66104;45.456;11.064;2023-03-11T04:23:44;11.19;54.23
68746;SHT31;66104;45.456;11.064;2023-03-11T04:26:22;11.15;54.38
68746;SHT31;66104;45.456;11.064;2023-03-11T04:28:59;11.17;54.41
68746;SHT31;66104;45.456;11.064;2023-03-11T04:31:41;11.22;54.60
68746;SHT31;66104;45.456;11.064;2023-03-11T04:34:17;11.25;54.57
68746;SHT31;66104;45.456;11.064;2023-03-11T04:36:55;11.25;54.46
68746;SHT31;66104;45.456;11.064;2023-03-11T04:39:34;11.25;54.39
68746;SHT31;66104;45.456;11.064;2023-03-11T04:42:11;11.28;54.30
68746;SHT31;66104;45.456;11.064;2023-03-11T04:44:48;11.27;54.20
68746;SHT31;66104;45.456;11.064;2023-03-11T04:47:26;11.26;54.26
68746;SHT31;66104;45.456;11.064;2023-03-11T04:50:04;11.28;54.24
68746;SHT31;66104;45.456;11.064;2023-03-11T04:52:43;11.34;54.19
68746;SHT31;66104;45.456;11.064;2023-03-11T04:55:20;11.38;54.05
68746;SHT31;66104;45.456;11.064;2023-03-11T04:57:57;11.41;54.09
68746;SHT31;66104;45.456;11.064;2023-03-11T05:00:34;11.35;54.16
68746;SHT31;66104;45.456;11.064;2023-03-11T05:03:12;11.26;54.48
68746;SHT31;66104;45.456;11.064;2023-03-11T05:05:49;11.20;54.83
68746;SHT31;66104;45.456;11.064;2023-03-11T05:08:27;11.21;54.90
68746;SHT31;66104;45.456;11.064;2023-03-11T05:11:05;11.22;55.10
68746;SHT31;66104;45.456;11.064;2023-03-11T05:13:43;11.16;55.29
68746;SHT31;66104;45.456;11.064;2023-03-11T05:16:20;11.08;55.47
68746;SHT31;66104;45.456;11.064;2023-03-11T05:18:58;11.05;55.46
68746;SHT31;66104;45.456;11.064;2023-03-11T05:21:55;11.04;55.44
68746;SHT31;66104;45.456;11.064;2023-03-11T05:24:31;11.04;55.43
68746;SHT31;66104;45.456;11.064;2023-03-11T05:27:10;11.04;55.43
68746;SHT31;66104;45.456;11.064;2023-03-11T05:29:53;11.06;55.57
68746;SHT31;66104;45.456;11.064;2023-03-11T05:32:32;11.08;55.58
68746;SHT31;66104;45.456;11.064;2023-03-11T05:35:08;11.08;55.72
68746;SHT31;66104;45.456;11.064;2023-03-11T05:37:46;11.05;55.90
68746;SHT31;66104;45.456;11.064;2023-03-11T05:40:24;11.04;55.83
68746;SHT31;66104;45.456;11.064;2023-03-11T05:43:01;11.02;55.90
68746;SHT31;66104;45.456;11.064;2023-03-11T05:45:40;11.03;56.00
68746;SHT31;66104;45.456;11.064;2023-03-11T05:48:17;11.01;56.01
68746;SHT31;66104;45.456;11.064;2023-03-11T05:50:54;11.02;55.79
68746;SHT31;66104;45.456;11.064;2023-03-11T05:53:31;11.02;55.74
68746;SHT31;66104;45.456;11.064;2023-03-11T05:56:07;11.00;55.97
68746;SHT31;66104;45.456;11.064;2023-03-11T05:58:44;10.98;56.07
68746;SHT31;66104;45.456;11.064;2023-03-11T06:01:21;11.02;56.01
68746;SHT31;66104;45.456;11.064;2023-03-11T06:03:58;11.03;55.87
68746;SHT31;66104;45.456;11.064;2023-03-11T06:06:37;11.00;56.05
68746;SHT31;66104;45.456;11.064;2023-03-11T06:09:14;10.90;56.22
68746;SHT31;66104;45.456;11.064;2023-03-11T06:11:52;10.90;56.11
68746;SHT31;66104;45.456;11.064;2023-03-11T06:14:33;10.90;56.00
68746;SHT31;66104;45.456;11.064;2023-03-11T06:17:11;10.92;56.04
68746;SHT31;66104;45.456;11.064;2023-03-11T06:19:47;10.95;56.05
68746;SHT31;66104;45.456;11.064;2023-03-11T06:22:24;10.94;56.21
68746;SHT31;66104;45.456;11.064;2023-03-11T06:25:01;10.97;56.43
68746;SHT31;66104;45.456;11.064;2023-03-11T06:27:40;10.98;56.78
68746;SHT31;66104;45.456;11.064;2023-03-11T06:30:22;10.97;56.85
68746;SHT31;66104;45.456;11.064;2023-03-11T06:33:08;11.02;56.90
68746;SHT31;66104;45.456;11.064;2023-03-11T06:35:44;11.16;56.79
68746;SHT31;66104;45.456;11.064;2023-03-11T06:38:32;11.33;56.54
68746;SHT31;66104;45.456;11.064;2023-03-11T06:41:09;11.45;56.11
68746;SHT31;66104;45.456;11.064;2023-03-11T06:43:46;11.54;55.68
68746;SHT31;66104;45.456;11.064;2023-03-11T06:46:24;11.58;55.45
68746;SHT31;66104;45.456;11.064;2023-03-11T06:49:01;11.57;55.62
68746;SHT31;66104;45.456;11.064;2023-03-11T06:51:36;11.60;55.86
68746;SHT31;66104;45.456;11.064;2023-03-11T06:54:14;11.71;55.74
68746;SHT31;66104;45.456;11.064;2023-03-11T06:56:52;11.82;55.56
68746;SHT31;66104;45.456;11.064;2023-03-11T06:59:29;11.84;55.46
68746;SHT31;66104;45.456;11.064;2023-03-11T07:02:09;11.91;55.37
68746;SHT31;66104;45.456;11.064;2023-03-11T07:04:49;12.01;55.05
68746;SHT31;66104;45.456;11.064;2023-03-11T07:07:26;12.13;54.82
68746;SHT31;66104;45.456;11.064;2023-03-11T07:10:04;12.23;54.60
68746;SHT31;66104;45.456;11.064;2023-03-11T07:12:46;12.35;54.49
68746;SHT31;66104;45.456;11.064;2023-03-11T07:15:24;12.46;54.40
68746;SHT31;66104;45.456;11.064;2023-03-11T07:18:01;12.62;54.25
68746;SHT31;66104;45.456;11.064;2023-03-11T07:20:38;12.78;53.80
68746;SHT31;66104;45.456;11.064;2023-03-11T07:23:16;12.92;53.21
68746;SHT31;66104;45.456;11.064;2023-03-11T07:25:53;13.08;52.76
68746;SHT31;66104;45.456;11.064;2023-03-11T07:28:31;13.27;52.31
68746;SHT31;66104;45.456;11.064;2023-03-11T07:31:09;13.46;51.35
68746;SHT31;66104;45.456;11.064;2023-03-11T07:33:49;13.61;50.73
68746;SHT31;66104;45.456;11.064;2023-03-11T07:36:27;13.76;50.35
68746;SHT31;66104;45.456;11.064;2023-03-11T07:39:05;13.88;49.82
68746;SHT31;66104;45.456;11.064;2023-03-11T07:41:46;13.92;49.42
68746;SHT31;66104;45.456;11.064;2023-03-11T07:44:29;13.91;49.07
68746;SHT31;66104;45.456;11.064;2023-03-11T07:47:07;13.87;48.94
68746;SHT31;66104;45.456;11.064;2023-03-11T07:49:44;13.87;48.98
68746;SHT31;66104;45.456;11.064;2023-03-11T07:52:28;13.88;49.19
68746;SHT31;66104;45.456;11.064;2023-03-11T07:55:06;13.87;49.22
68746;SHT31;66104;45.456;11.064;2023-03-11T07:57:47;13.87;49.45
68746;SHT31;66104;45.456;11.064;2023-03-11T08:00:24;13.87;49.64
68746;SHT31;66104;45.456;11.064;2023-03-11T08:03:00;13.89;49.76
68746;SHT31;66104;45.456;11.064;2023-03-11T08:05:37;13.89;49.84
68746;SHT31;66104;45.456;11.064;2023-03-11T08:08:14;13.92;49.91
68746;SHT31;66104;45.456;11.064;2023-03-11T08:10:50;13.92;50.00
68746;SHT31;66104;45.456;11.064;2023-03-11T08:13:27;13.94;49.99
68746;SHT31;66104;45.456;11.064;2023-03-11T08:16:06;13.93;50.05
68746;SHT31;66104;45.456;11.064;2023-03-11T08:18:47;13.94;50.18
68746;SHT31;66104;45.456;11.064;2023-03-11T08:21:25;13.98;50.43
68746;SHT31;66104;45.456;11.064;2023-03-11T08:24:03;14.03;50.66
68746;SHT31;66104;45.456;11.064;2023-03-11T08:26:43;14.08;50.63
68746;SHT31;66104;45.456;11.064;2023-03-11T08:29:20;14.08;50.83
68746;SHT31;66104;45.456;11.064;2023-03-11T08:31:57;14.09;51.07
68746;SHT31;66104;45.456;11.064;2023-03-11T08:34:35;14.12;51.24
68746;SHT31;66104;45.456;11.064;2023-03-11T08:37:12;14.15;51.40
68746;SHT31;66104;45.456;11.064;2023-03-11T08:39:52;14.15;51.72
68746;SHT31;66104;45.456;11.064;2023-03-11T08:42:30;14.14;51.90
68746;SHT31;66104;45.456;11.064;2023-03-11T08:45:09;14.13;52.12
68746;SHT31;66104;45.456;11.064;2023-03-11T08:47:48;14.17;52.37
68746;SHT31;66104;45.456;11.064;2023-03-11T08:50:26;14.20;52.63
68746;SHT31;66104;45.456;11.064;2023-03-11T08:53:20;14.26;52.79
68746;SHT31;66104;45.456;11.064;2023-03-11T08:55:56;14.31;53.03
68746;SHT31;66104;45.456;11.064;2023-03-11T08:58:33;14.40;53.39
68746;SHT31;66104;45.456;11.064;2023-03-11T09:01:10;14.48;53.67
68746;SHT31;66104;45.456;11.064;2023-03-11T09:03:49;14.60;54.50
68746;SHT31;66104;45.456;11.064;2023-03-11T09:06:26;14.73;55.05
68746;SHT31;66104;45.456;11.064;2023-03-11T09:09:04;14.84;56.31
68746;SHT31;66104;45.456;11.064;2023-03-11T09:11:43;14.97;56.51
68746;SHT31;66104;45.456;11.064;2023-03-11T09:14:20;15.10;56.85
68746;SHT31;66104;45.456;11.064;2023-03-11T09:16:56;15.20;57.20
68746;SHT31;66104;45.456;11.064;2023-03-11T09:19:34;15.31;57.52
68746;SHT31;66104;45.456;11.064;2023-03-11T09:22:11;15.41;57.76
68746;SHT31;66104;45.456;11.064;2023-03-11T09:24:47;15.50;57.96
68746;SHT31;66104;45.456;11.064;2023-03-11T09:27:24;15.60;59.20
68746;SHT31;66104;45.456;11.064;2023-03-11T09:30:01;15.69;59.99
68746;SHT31;66104;45.456;11.064;2023-03-11T09:32:43;15.74;60.00
68746;SHT31;66104;45.456;11.064;2023-03-11T09:35:20;15.74;59.95
68746;SHT31;66104;45.456;11.064;2023-03-11T09:37:58;15.75;60.24
68746;SHT31;66104;45.456;11.064;2023-03-11T09:40:41;15.86;60.10
68746;SHT31;66104;45.456;11.064;2023-03-11T09:43:30;15.99;60.35
68746;SHT31;66104;45.456;11.064;2023-03-11T09:49:29;16.19;59.68
68746;SHT31;66104;45.456;11.064;2023-03-11T09:52:22;16.30;59.90
68746;SHT31;66104;45.456;11.064;2023-03-11T09:55:10;16.40;59.59
68746;SHT31;66104;45.456;11.064;2023-03-11T09:58:18;16.50;59.65
68746;SHT31;66104;45.456;11.064;2023-03-11T10:01:07;16.59;59.24
68746;SHT31;66104;45.456;11.064;2023-03-11T10:03:54;16.69;59.18
68746;SHT31;66104;45.456;11.064;2023-03-11T10:06:39;16.77;59.14
68746;SHT31;66104;45.456;11.064;2023-03-11T10:09:29;16.83;59.08
68746;SHT31;66104;45.456;11.064;2023-03-11T10:12:19;16.91;58.96
68746;SHT31;66104;45.456;11.064;2023-03-11T10:15:13;16.96;58.73
68746;SHT31;66104;45.456;11.064;2023-03-11T10:21:14;17.07;58.45
68746;SHT31;66104;45.456;11.064;2023-03-11T10:24:13;17.17;58.51
68746;SHT31;66104;45.456;11.064;2023-03-11T10:27:34;17.33;58.35
68746;SHT31;66104;45.456;11.064;2023-03-11T10:30:22;17.43;57.39
68746;SHT31;66104;45.456;11.064;2023-03-11T10:33:08;17.45;57.14
68746;SHT31;66104;45.456;11.064;2023-03-11T10:35:57;17.45;57.19
68746;SHT31;66104;45.456;11.064;2023-03-11T10:38:43;17.39;57.27
68746;SHT31;66104;45.456;11.064;2023-03-11T10:41:23;17.33;57.61
68746;SHT31;66104;45.456;11.064;2023-03-11T10:44:11;17.29;57.49
68746;SHT31;66104;45.456;11.064;2023-03-11T10:46:55;17.31;57.42
68746;SHT31;66104;45.456;11.064;2023-03-11T10:49:32;17.36;57.32
68746;SHT31;66104;45.456;11.064;2023-03-11T10:52:08;17.38;57.17
68746;SHT31;66104;45.456;11.064;2023-03-11T10:54:45;17.38;57.24
68746;SHT31;66104;45.456;11.064;2023-03-11T10:57:34;17.35;57.30
68746;SHT31;66104;45.456;11.064;2023-03-11T11:00:14;17.33;57.46
68746;SHT31;66104;45.456;11.064;2023-03-11T11:03:04;17.30;57.43
68746;SHT31;66104;45.456;11.064;2023-03-11T11:05:59;17.23;57.53
68746;SHT31;66104;45.456;11.064;2023-03-11T11:08:38;17.16;57.95
68746;SHT31;66104;45.456;11.064;2023-03-11T11:11:20;17.17;58.17
68746;SHT31;66104;45.456;11.064;2023-03-11T11:13:57;17.16;57.92
68746;SHT31;66104;45.456;11.064;2023-03-11T11:16:34;17.17;57.89
68746;SHT31;66104;45.456;11.064;2023-03-11T11:19:12;17.28;57.80
68746;SHT31;66104;45.456;11.064;2023-03-11T11:21:50;17.45;57.09
68746;SHT31;66104;45.456;11.064;2023-03-11T11:24:33;17.61;56.60
68746;SHT31;66104;45.456;11.064;2023-03-11T11:27:19;17.70;56.07
68746;SHT31;66104;45.456;11.064;2023-03-11T11:30:12;17.70;55.41
68746;SHT31;66104;45.456;11.064;2023-03-11T11:32:51;17.66;55.37
68746;SHT31;66104;45.456;11.064;2023-03-11T11:35:49;17.72;55.42
68746;SHT31;66104;45.456;11.064;2023-03-11T11:38:28;17.81;55.15
68746;SHT31;66104;45.456;11.064;2023-03-11T11:41:08;17.93;55.08
68746;SHT31;66104;45.456;11.064;2023-03-11T11:43:52;18.05;54.95
68746;SHT31;66104;45.456;11.064;2023-03-11T11:46:33;18.16;54.96
68746;SHT31;66104;45.456;11.064;2023-03-11T11:49:16;18.25;54.50
68746;SHT31;66104;45.456;11.064;2023-03-11T11:51:59;18.29;53.68
68746;SHT31;66104;45.456;11.064;2023-03-11T11:54:45;18.27;52.88
68746;SHT31;66104;45.456;11.064;2023-03-11T11:57:30;18.30;52.66
68746;SHT31;66104;45.456;11.064;2023-03-11T12:00:12;18.34;52.80
68746;SHT31;66104;45.456;11.064;2023-03-11T12:02:59;18.41;53.44
68746;SHT31;66104;45.456;11.064;2023-03-11T12:05:57;18.44;53.46
68746;SHT31;66104;45.456;11.064;2023-03-11T12:08:41;18.42;53.99
68746;SHT31;66104;45.456;11.064;2023-03-11T12:11:35;18.49;54.55
68746;SHT31;66104;45.456;11.064;2023-03-11T12:14:18;18.58;54.55
68746;SHT31;66104;45.456;11.064;2023-03-11T12:17:02;18.66;54.59
68746;SHT31;66104;45.456;11.064;2023-03-11T12:19:42;18.74;53.96
68746;SHT31;66104;45.456;11.064;2023-03-11T12:22:43;18.82;53.79
68746;SHT31;66104;45.456;11.064;2023-03-11T12:28:49;18.96;53.42
68746;SHT31;66104;45.456;11.064;2023-03-11T12:31:35;18.99;53.40
68746;SHT31;66104;45.456;11.064;2023-03-11T12:34:15;18.98;53.24
68746;SHT31;66104;45.456;11.064;2023-03-11T12:36:55;18.99;53.45
68746;SHT31;66104;45.456;11.064;2023-03-11T12:39:45;19.07;53.06
68746;SHT31;66104;45.456;11.064;2023-03-11T12:42:22;19.07;52.82
68746;SHT31;66104;45.456;11.064;2023-03-11T12:48:35;19.09;52.81
68746;SHT31;66104;45.456;11.064;2023-03-11T12:54:31;19.18;52.54
68746;SHT31;66104;45.456;11.064;2023-03-11T12:57:13;19.19;52.40
68746;SHT31;66104;45.456;11.064;2023-03-11T13:00:27;19.18;52.23
68746;SHT31;66104;45.456;11.064;2023-03-11T13:10:32;19.29;51.29
68746;SHT31;66104;45.456;11.064;2023-03-11T13:19:32;19.25;50.72
68746;SHT31;66104;45.456;11.064;2023-03-11T13:35:27;19.40;49.67
68746;SHT31;66104;45.456;11.064;2023-03-11T13:38:33;19.48;49.80
68746;SHT31;66104;45.456;11.064;2023-03-11T13:41:50;19.58;49.67
68746;SHT31;66104;45.456;11.064;2023-03-11T13:44:29;19.64;49.12
68746;SHT31;66104;45.456;11.064;2023-03-11T13:47:14;19.65;48.62
68746;SHT31;66104;45.456;11.064;2023-03-11T13:49:57;19.62;48.38
68746;SHT31;66104;45.456;11.064;2023-03-11T13:52:48;19.63;48.12
68746;SHT31;66104;45.456;11.064;2023-03-11T13:55:29;19.63;47.77
68746;SHT31;66104;45.456;11.064;2023-03-11T13:58:15;19.61;47.34
68746;SHT31;66104;45.456;11.064;2023-03-11T14:00:54;19.63;47.22
68746;SHT31;66104;45.456;11.064;2023-03-11T14:03:39;19.67;47.22
68746;SHT31;66104;45.456;11.064;2023-03-11T14:06:18;19.71;47.07
68746;SHT31;66104;45.456;11.064;2023-03-11T14:08:55;19.63;47.48
68746;SHT31;66104;45.456;11.064;2023-03-11T14:11:34;19.58;47.63
68746;SHT31;66104;45.456;11.064;2023-03-11T14:14:28;19.51;48.08
68746;SHT31;66104;45.456;11.064;2023-03-11T14:17:18;19.54;48.67
68746;SHT31;66104;45.456;11.064;2023-03-11T14:20:02;19.55;48.59
68746;SHT31;66104;45.456;11.064;2023-03-11T14:22:46;19.47;48.59
68746;SHT31;66104;45.456;11.064;2023-03-11T14:25:27;19.45;48.99
68746;SHT31;66104;45.456;11.064;2023-03-11T14:28:06;19.50;49.55
68746;SHT31;66104;45.456;11.064;2023-03-11T14:30:58;19.56;49.92
68746;SHT31;66104;45.456;11.064;2023-03-11T14:33:35;19.59;50.06
68746;SHT31;66104;45.456;11.064;2023-03-11T14:36:12;19.56;50.36
68746;SHT31;66104;45.456;11.064;2023-03-11T14:38:50;19.53;50.51
68746;SHT31;66104;45.456;11.064;2023-03-11T14:41:27;19.53;50.65
68746;SHT31;66104;45.456;11.064;2023-03-11T14:44:04;19.56;50.92
68746;SHT31;66104;45.456;11.064;2023-03-11T14:46:43;19.59;51.05
68746;SHT31;66104;45.456;11.064;2023-03-11T14:49:23;19.54;51.43
68746;SHT31;66104;45.456;11.064;2023-03-11T14:52:01;19.47;51.88
68746;SHT31;66104;45.456;11.064;2023-03-11T14:54:48;19.42;51.39
68746;SHT31;66104;45.456;11.064;2023-03-11T14:57:26;19.30;51.17
68746;SHT31;66104;45.456;11.064;2023-03-11T15:00:17;19.23;51.38
68746;SHT31;66104;45.456;11.064;2023-03-11T15:03:00;19.24;51.72
68746;SHT31;66104;45.456;11.064;2023-03-11T15:05:53;19.20;51.49
68746;SHT31;66104;45.456;11.064;2023-03-11T15:08:34;19.15;50.87
68746;SHT31;66104;45.456;11.064;2023-03-11T15:11:22;19.15;50.83
68746;SHT31;66104;45.456;11.064;2023-03-11T15:14:14;19.12;50.32
68746;SHT31;66104;45.456;11.064;2023-03-11T15:17:09;19.13;50.37
68746;SHT31;66104;45.456;11.064;2023-03-11T15:20:20;19.08;50.46
68746;SHT31;66104;45.456;11.064;2023-03-11T15:23:02;19.03;49.98
68746;SHT31;66104;45.456;11.064;2023-03-11T15:25:50;19.00;49.30
68746;SHT31;66104;45.456;11.064;2023-03-11T15:28:30;19.00;49.55
68746;SHT31;66104;45.456;11.064;2023-03-11T15:40:12;19.02;51.19
68746;SHT31;66104;45.456;11.064;2023-03-11T15:46:16;18.88;50.97
68746;SHT31;66104;45.456;11.064;2023-03-11T15:48:54;18.84;51.07
68746;SHT31;66104;45.456;11.064;2023-03-11T15:51:31;18.76;51.17
68746;SHT31;66104;45.456;11.064;2023-03-11T15:54:08;18.72;51.42
68746;SHT31;66104;45.456;11.064;2023-03-11T15:56:46;18.67;51.81
68746;SHT31;66104;45.456;11.064;2023-03-11T15:59:23;18.63;52.01
68746;SHT31;66104;45.456;11.064;2023-03-11T16:02:01;18.57;52.10
68746;SHT31;66104;45.456;11.064;2023-03-11T16:04:53;18.54;52.20
68746;SHT31;66104;45.456;11.064;2023-03-11T16:07:30;18.51;52.21
68746;SHT31;66104;45.456;11.064;2023-03-11T16:10:08;18.48;52.14
68746;SHT31;66104;45.456;11.064;2023-03-11T16:12:48;18.42;52.01
68746;SHT31;66104;45.456;11.064;2023-03-11T16:15:25;18.35;52.24
68746;SHT31;66104;45.456;11.064;2023-03-11T16:18:05;18.29;52.53
68746;SHT31;66104;45.456;11.064;2023-03-11T16:20:44;18.25;52.60
68746;SHT31;66104;45.456;11.064;2023-03-11T16:23:23;18.19;52.82
68746;SHT31;66104;45.456;11.064;2023-03-11T16:26:19;18.13;52.92
68746;SHT31;66104;45.456;11.064;2023-03-11T16:28:57;18.08;53.15
68746;SHT31;66104;45.456;11.064;2023-03-11T16:31:46;18.03;53.18
68746;SHT31;66104;45.456;11.064;2023-03-11T16:34:25;17.96;53.30
68746;SHT31;66104;45.456;11.064;2023-03-11T16:37:01;17.89;53.55
68746;SHT31;66104;45.456;11.064;2023-03-11T16:39:44;17.84;53.70
68746;SHT31;66104;45.456;11.064;2023-03-11T16:42:22;17.76;53.74
68746;SHT31;66104;45.456;11.064;2023-03-11T16:44:59;17.67;53.95
68746;SHT31;66104;45.456;11.064;2023-03-11T16:47:38;17.61;54.13
68746;SHT31;66104;45.456;11.064;2023-03-11T16:50:14;17.58;54.20
68746;SHT31;66104;45.456;11.064;2023-03-11T16:52:54;17.54;54.44
68746;SHT31;66104;45.456;11.064;2023-03-11T16:55:32;17.48;54.63
68746;SHT31;66104;45.456;11.064;2023-03-11T16:58:10;17.42;54.73
68746;SHT31;66104;45.456;11.064;2023-03-11T17:00:48;17.36;54.88
68746;SHT31;66104;45.456;11.064;2023-03-11T17:03:25;17.31;54.92
68746;SHT31;66104;45.456;11.064;2023-03-11T17:06:10;17.28;54.96
68746;SHT31;66104;45.456;11.064;2023-03-11T17:08:49;17.26;54.99
68746;SHT31;66104;45.456;11.064;2023-03-11T17:11:26;17.23;55.05
68746;SHT31;66104;45.456;11.064;2023-03-11T17:14:03;17.19;55.13
68746;SHT31;66104;45.456;11.064;2023-03-11T17:16:44;17.16;55.04
68746;SHT31;66104;45.456;11.064;2023-03-11T17:19:21;17.12;55.01
68746;SHT31;66104;45.456;11.064;2023-03-11T17:21:57;17.09;55.08
68746;SHT31;66104;45.456;11.064;2023-03-11T17:24:35;17.08;55.10
68746;SHT31;66104;45.456;11.064;2023-03-11T17:27:13;17.03;55.17
68746;SHT31;66104;45.456;11.064;2023-03-11T17:29:50;16.99;55.20
68746;SHT31;66104;45.456;11.064;2023-03-11T17:32:27;16.96;55.20
68746;SHT31;66104;45.456;11.064;2023-03-11T17:35:06;16.93;55.23
68746;SHT31;66104;45.456;11.064;2023-03-11T17:37:44;16.89;55.24